sensor_id;sensor_type;location;lat;lon;timestamp;P1;durP1;ratioP1;P2;durP2;ratioP2
23868;SDS011;12115;47.128;15.422;2023-05-14T00:02:17;13.75;;;11.88;;
23868;SDS011;12115;47.128;15.422;2023-05-14T00:04:44;17.55;;;15.02;;
23868;SDS011;12115;47.128;15.422;2023-05-14T00:07:11;13.15;;;11.85;;
23868;SDS011;12115;47.128;15.422;2023-05-14T00:09:39;13.27;;;11.10;;
23868;SDS011;12115;47.128;15.422;2023-05-14T00:12:06;11.50;;;10.30;;
23868;SDS011;12115;47.128;15.422;2023-05-14T00:14:33;12.38;;;11.07;;
23868;SDS011;12115;47.128;15.422;2023-05-14T00:17:00;13.18;;;11.02;;
23868;SDS011;12115;47.128;15.422;2023-05-14T00:19:28;13.38;;;12.07;;
23868;SDS011;12115;47.128;15.422;2023-05-14T00:21:55;11.88;;;10.68;;
23868;SDS011;12115;47.128;15.422;2023-05-14T00:24:23;13.18;;;10.77;;
23868;SDS011;12115;47.128;15.422;2023-05-14T00:26:50;9.75;;;8.05;;
23868;SDS011;12115;47.128;15.422;2023-05-14T00:29:17;10.38;;;9.43;;
23868;SDS011;12115;47.128;15.422;2023-05-14T00:31:44;14.38;;;11.65;;
23868;SDS011;12115;47.128;15.422;2023-05-14T00:34:12;12.75;;;11.45;;
23868;SDS011;12115;47.128;15.422;2023-05-14T00:36:39;10.00;;;9.00;;
23868;SDS011;12115;47.128;15.422;2023-05-14T00:39:06;10.80;;;9.35;;
23868;SDS011;12115;47.128;15.422;2023-05-14T00:41:33;10.13;;;9.13;;
23868;SDS011;12115;47.128;15.422;2023-05-14T00:44:01;9.65;;;8.75;;
23868;SDS011;12115;47.128;15.422;2023-05-14T00:46:28;12.30;;;11.13;;
23868;SDS011;12115;47.128;15.422;2023-05-14T00:48:56;10.65;;;9.60;;
23868;SDS011;12115;47.128;15.422;2023-05-14T00:51:24;12.38;;;10.23;;
23868;SDS011;12115;47.128;15.422;2023-05-14T00:53:51;11.20;;;10.05;;
23868;SDS011;12115;47.128;15.422;2023-05-14T00:56:19;12.70;;;9.90;;
23868;SDS011;12115;47.128;15.422;2023-05-14T00:58:46;12.05;;;10.77;;
23868;SDS011;12115;47.128;15.422;2023-05-14T01:01:14;11.80;;;10.60;;
23868;SDS011;12115;47.128;15.422;2023-05-14T01:03:42;12.93;;;10.48;;
23868;SDS011;12115;47.128;15.422;2023-05-14T01:09:08;10.25;;;9.20;;
23868;SDS011;12115;47.128;15.422;2023-05-14T01:17:52;8.75;;;6.00;;
23868;SDS011;12115;47.128;15.422;2023-05-14T01:20:22;6.65;;;6.05;;
23868;SDS011;12115;47.128;15.422;2023-05-14T01:22:50;6.53;;;5.93;;
23868;SDS011;12115;47.128;15.422;2023-05-14T01:25:17;6.72;;;6.13;;
23868;SDS011;12115;47.128;15.422;2023-05-14T01:32:52;8.00;;;7.05;;
23868;SDS011;12115;47.128;15.422;2023-05-14T01:35:29;7.03;;;6.28;;
23868;SDS011;12115;47.128;15.422;2023-05-14T01:38:00;6.15;;;5.55;;
23868;SDS011;12115;47.128;15.422;2023-05-14T01:40:29;6.68;;;6.05;;
23868;SDS011;12115;47.128;15.422;2023-05-14T01:42:59;6.88;;;6.22;;
23868;SDS011;12115;47.128;15.422;2023-05-14T01:45:27;8.13;;;7.32;;
23868;SDS011;12115;47.128;15.422;2023-05-14T01:47:56;10.63;;;9.55;;
23868;SDS011;12115;47.128;15.422;2023-05-14T01:50:23;13.15;;;10.68;;
23868;SDS011;12115;47.128;15.422;2023-05-14T01:52:51;11.85;;;10.50;;
23868;SDS011;12115;47.128;15.422;2023-05-14T01:55:22;16.92;;;15.07;;
23868;SDS011;12115;47.128;15.422;2023-05-14T01:57:50;12.00;;;10.80;;
23868;SDS011;12115;47.128;15.422;2023-05-14T02:00:18;16.25;;;14.60;;
23868;SDS011;12115;47.128;15.422;2023-05-14T02:02:46;17.90;;;15.77;;
23868;SDS011;12115;47.128;15.422;2023-05-14T02:05:15;19.02;;;15.88;;
23868;SDS011;12115;47.128;15.422;2023-05-14T02:07:42;19.95;;;17.42;;
23868;SDS011;12115;47.128;15.422;2023-05-14T02:10:09;18.63;;;16.65;;
23868;SDS011;12115;47.128;15.422;2023-05-14T02:12:36;23.63;;;19.25;;
23868;SDS011;12115;47.128;15.422;2023-05-14T02:15:04;22.00;;;18.17;;
23868;SDS011;12115;47.128;15.422;2023-05-14T02:17:31;21.50;;;19.30;;
23868;SDS011;12115;47.128;15.422;2023-05-14T02:19:59;26.55;;;21.73;;
23868;SDS011;12115;47.128;15.422;2023-05-14T02:22:26;25.08;;;21.20;;
23868;SDS011;12115;47.128;15.422;2023-05-14T02:24:53;24.48;;;20.77;;
23868;SDS011;12115;47.128;15.422;2023-05-14T02:27:20;26.70;;;23.30;;
23868;SDS011;12115;47.128;15.422;2023-05-14T02:29:47;28.42;;;22.90;;
23868;SDS011;12115;47.128;15.422;2023-05-14T02:32:15;23.42;;;20.90;;
23868;SDS011;12115;47.128;15.422;2023-05-14T02:34:42;26.33;;;23.13;;
23868;SDS011;12115;47.128;15.422;2023-05-14T02:37:09;24.83;;;21.25;;
23868;SDS011;12115;47.128;15.422;2023-05-14T02:39:36;29.50;;;22.73;;
23868;SDS011;12115;47.128;15.422;2023-05-14T02:42:05;25.52;;;22.77;;
23868;SDS011;12115;47.128;15.422;2023-05-14T02:44:32;27.10;;;21.90;;
23868;SDS011;12115;47.128;15.422;2023-05-14T02:46:59;30.75;;;26.15;;
23868;SDS011;12115;47.128;15.422;2023-05-14T02:49:27;26.38;;;22.90;;
23868;SDS011;12115;47.128;15.422;2023-05-14T02:51:54;26.67;;;23.77;;
23868;SDS011;12115;47.128;15.422;2023-05-14T02:54:21;25.27;;;22.58;;
23868;SDS011;12115;47.128;15.422;2023-05-14T02:56:48;26.17;;;23.38;;
23868;SDS011;12115;47.128;15.422;2023-05-14T02:59:16;26.67;;;23.27;;
23868;SDS011;12115;47.128;15.422;2023-05-14T03:01:43;30.00;;;23.88;;
23868;SDS011;12115;47.128;15.422;2023-05-14T03:04:11;29.15;;;25.25;;
23868;SDS011;12115;47.128;15.422;2023-05-14T03:06:38;31.02;;;25.50;;
23868;SDS011;12115;47.128;15.422;2023-05-14T03:09:05;33.83;;;27.25;;
23868;SDS011;12115;47.128;15.422;2023-05-14T03:11:33;26.75;;;23.85;;
23868;SDS011;12115;47.128;15.422;2023-05-14T03:14:00;28.13;;;23.42;;
23868;SDS011;12115;47.128;15.422;2023-05-14T03:16:28;38.80;;;29.08;;
23868;SDS011;12115;47.128;15.422;2023-05-14T03:18:55;33.97;;;27.73;;
23868;SDS011;12115;47.128;15.422;2023-05-14T03:21:22;30.55;;;26.33;;
23868;SDS011;12115;47.128;15.422;2023-05-14T03:23:51;24.15;;;21.58;;
23868;SDS011;12115;47.128;15.422;2023-05-14T03:26:18;27.98;;;23.88;;
23868;SDS011;12115;47.128;15.422;2023-05-14T03:28:47;28.48;;;24.52;;
23868;SDS011;12115;47.128;15.422;2023-05-14T03:31:14;23.90;;;20.02;;
23868;SDS011;12115;47.128;15.422;2023-05-14T03:33:41;24.33;;;21.73;;
23868;SDS011;12115;47.128;15.422;2023-05-14T03:36:08;23.88;;;19.67;;
23868;SDS011;12115;47.128;15.422;2023-05-14T03:38:35;26.98;;;23.10;;
23868;SDS011;12115;47.128;15.422;2023-05-14T03:41:03;24.90;;;20.75;;
23868;SDS011;12115;47.128;15.422;2023-05-14T03:43:30;23.42;;;20.85;;
23868;SDS011;12115;47.128;15.422;2023-05-14T03:45:57;23.88;;;20.77;;
23868;SDS011;12115;47.128;15.422;2023-05-14T03:48:25;22.83;;;19.48;;
23868;SDS011;12115;47.128;15.422;2023-05-14T03:50:53;23.90;;;19.27;;
23868;SDS011;12115;47.128;15.422;2023-05-14T03:53:20;22.70;;;19.02;;
23868;SDS011;12115;47.128;15.422;2023-05-14T03:55:47;19.73;;;17.63;;
23868;SDS011;12115;47.128;15.422;2023-05-14T03:58:24;20.73;;;18.55;;
23868;SDS011;12115;47.128;15.422;2023-05-14T04:00:52;18.90;;;17.00;;
23868;SDS011;12115;47.128;15.422;2023-05-14T04:03:19;22.77;;;17.33;;
23868;SDS011;12115;47.128;15.422;2023-05-14T04:05:49;20.88;;;17.88;;
23868;SDS011;12115;47.128;15.422;2023-05-14T04:08:17;18.42;;;16.27;;
23868;SDS011;12115;47.128;15.422;2023-05-14T04:10:45;19.50;;;16.95;;
23868;SDS011;12115;47.128;15.422;2023-05-14T04:13:12;18.27;;;15.35;;
23868;SDS011;12115;47.128;15.422;2023-05-14T04:15:39;18.10;;;15.55;;
23868;SDS011;12115;47.128;15.422;2023-05-14T04:18:07;18.30;;;15.70;;
23868;SDS011;12115;47.128;15.422;2023-05-14T04:20:34;18.13;;;16.30;;
23868;SDS011;12115;47.128;15.422;2023-05-14T04:23:02;16.40;;;14.70;;
23868;SDS011;12115;47.128;15.422;2023-05-14T04:25:30;16.10;;;14.25;;
23868;SDS011;12115;47.128;15.422;2023-05-14T04:27:57;14.27;;;12.63;;
23868;SDS011;12115;47.128;15.422;2023-05-14T04:30:24;15.00;;;13.05;;
23868;SDS011;12115;47.128;15.422;2023-05-14T04:32:51;15.73;;;13.90;;
23868;SDS011;12115;47.128;15.422;2023-05-14T04:35:19;14.77;;;12.93;;
23868;SDS011;12115;47.128;15.422;2023-05-14T04:37:50;14.65;;;12.93;;
23868;SDS011;12115;47.128;15.422;2023-05-14T04:40:17;13.65;;;12.18;;
23868;SDS011;12115;47.128;15.422;2023-05-14T04:42:45;13.25;;;11.95;;
23868;SDS011;12115;47.128;15.422;2023-05-14T04:45:12;12.07;;;10.93;;
23868;SDS011;12115;47.128;15.422;2023-05-14T04:47:40;15.13;;;11.75;;
23868;SDS011;12115;47.128;15.422;2023-05-14T04:50:07;13.32;;;11.98;;
23868;SDS011;12115;47.128;15.422;2023-05-14T04:52:35;12.02;;;10.77;;
23868;SDS011;12115;47.128;15.422;2023-05-14T04:55:03;11.95;;;10.82;;
23868;SDS011;12115;47.128;15.422;2023-05-14T04:57:31;12.48;;;11.18;;
23868;SDS011;12115;47.128;15.422;2023-05-14T04:59:58;11.13;;;10.02;;
23868;SDS011;12115;47.128;15.422;2023-05-14T05:02:26;11.55;;;10.45;;
23868;SDS011;12115;47.128;15.422;2023-05-14T05:04:53;11.27;;;10.18;;
23868;SDS011;12115;47.128;15.422;2023-05-14T05:07:20;10.43;;;9.43;;
23868;SDS011;12115;47.128;15.422;2023-05-14T05:09:47;10.75;;;9.65;;
23868;SDS011;12115;47.128;15.422;2023-05-14T05:12:15;9.63;;;7.93;;
23868;SDS011;12115;47.128;15.422;2023-05-14T05:14:42;8.30;;;7.50;;
23868;SDS011;12115;47.128;15.422;2023-05-14T05:17:09;11.30;;;9.15;;
23868;SDS011;12115;47.128;15.422;2023-05-14T05:19:37;10.20;;;9.20;;
23868;SDS011;12115;47.128;15.422;2023-05-14T05:22:09;9.57;;;8.68;;
23868;SDS011;12115;47.128;15.422;2023-05-14T05:24:37;10.07;;;7.45;;
23868;SDS011;12115;47.128;15.422;2023-05-14T05:27:04;7.55;;;6.88;;
23868;SDS011;12115;47.128;15.422;2023-05-14T05:29:34;8.13;;;7.28;;
23868;SDS011;12115;47.128;15.422;2023-05-14T05:32:02;7.78;;;6.97;;
23868;SDS011;12115;47.128;15.422;2023-05-14T05:34:29;11.88;;;8.02;;
23868;SDS011;12115;47.128;15.422;2023-05-14T05:36:56;7.25;;;6.55;;
23868;SDS011;12115;47.128;15.422;2023-05-14T05:39:23;8.48;;;7.53;;
23868;SDS011;12115;47.128;15.422;2023-05-14T05:41:51;8.38;;;7.60;;
23868;SDS011;12115;47.128;15.422;2023-05-14T05:44:19;9.95;;;9.02;;
23868;SDS011;12115;47.128;15.422;2023-05-14T05:46:46;8.77;;;7.47;;
23868;SDS011;12115;47.128;15.422;2023-05-14T05:49:13;8.70;;;7.22;;
23868;SDS011;12115;47.128;15.422;2023-05-14T05:51:40;8.98;;;8.07;;
23868;SDS011;12115;47.128;15.422;2023-05-14T05:54:07;14.90;;;8.15;;
23868;SDS011;12115;47.128;15.422;2023-05-14T05:56:35;9.43;;;7.93;;
23868;SDS011;12115;47.128;15.422;2023-05-14T05:59:02;10.45;;;9.45;;
23868;SDS011;12115;47.128;15.422;2023-05-14T06:01:29;11.18;;;10.00;;
23868;SDS011;12115;47.128;15.422;2023-05-14T06:03:57;9.57;;;8.35;;
23868;SDS011;12115;47.128;15.422;2023-05-14T06:06:24;9.15;;;8.27;;
23868;SDS011;12115;47.128;15.422;2023-05-14T06:08:51;10.02;;;9.02;;
23868;SDS011;12115;47.128;15.422;2023-05-14T06:11:19;9.80;;;8.80;;
23868;SDS011;12115;47.128;15.422;2023-05-14T06:13:47;10.90;;;9.85;;
23868;SDS011;12115;47.128;15.422;2023-05-14T06:16:14;10.52;;;9.52;;
23868;SDS011;12115;47.128;15.422;2023-05-14T06:18:41;12.27;;;11.15;;
23868;SDS011;12115;47.128;15.422;2023-05-14T06:21:09;10.68;;;9.68;;
23868;SDS011;12115;47.128;15.422;2023-05-14T06:23:36;11.07;;;9.73;;
23868;SDS011;12115;47.128;15.422;2023-05-14T06:26:03;11.48;;;9.98;;
23868;SDS011;12115;47.128;15.422;2023-05-14T06:28:30;13.32;;;11.95;;
23868;SDS011;12115;47.128;15.422;2023-05-14T06:30:57;12.80;;;11.52;;
23868;SDS011;12115;47.128;15.422;2023-05-14T06:33:25;10.70;;;9.70;;
23868;SDS011;12115;47.128;15.422;2023-05-14T06:38:29;10.73;;;9.73;;
23868;SDS011;12115;47.128;15.422;2023-05-14T06:40:56;12.48;;;11.27;;
23868;SDS011;12115;47.128;15.422;2023-05-14T06:43:31;12.13;;;10.88;;
23868;SDS011;12115;47.128;15.422;2023-05-14T06:45:59;15.18;;;13.57;;
23868;SDS011;12115;47.128;15.422;2023-05-14T06:48:26;14.93;;;12.40;;
23868;SDS011;12115;47.128;15.422;2023-05-14T06:50:55;15.77;;;14.02;;
23868;SDS011;12115;47.128;15.422;2023-05-14T06:53:22;15.68;;;12.80;;
23868;SDS011;12115;47.128;15.422;2023-05-14T06:55:49;19.50;;;17.55;;
23868;SDS011;12115;47.128;15.422;2023-05-14T06:58:17;21.42;;;19.13;;
23868;SDS011;12115;47.128;15.422;2023-05-14T07:00:44;22.58;;;20.30;;
23868;SDS011;12115;47.128;15.422;2023-05-14T07:03:11;13.32;;;11.93;;
23868;SDS011;12115;47.128;15.422;2023-05-14T07:05:38;14.30;;;12.43;;
23868;SDS011;12115;47.128;15.422;2023-05-14T07:08:06;14.35;;;11.88;;
23868;SDS011;12115;47.128;15.422;2023-05-14T07:10:34;13.43;;;11.23;;
23868;SDS011;12115;47.128;15.422;2023-05-14T07:13:01;13.30;;;11.70;;
23868;SDS011;12115;47.128;15.422;2023-05-14T07:15:28;12.73;;;11.38;;
23868;SDS011;12115;47.128;15.422;2023-05-14T07:17:56;12.95;;;11.02;;
23868;SDS011;12115;47.128;15.422;2023-05-14T07:20:23;8.88;;;7.28;;
23868;SDS011;12115;47.128;15.422;2023-05-14T07:22:51;6.03;;;5.43;;
23868;SDS011;12115;47.128;15.422;2023-05-14T07:25:19;7.03;;;6.32;;
23868;SDS011;12115;47.128;15.422;2023-05-14T07:27:46;8.73;;;7.43;;
23868;SDS011;12115;47.128;15.422;2023-05-14T07:30:13;7.95;;;7.18;;
23868;SDS011;12115;47.128;15.422;2023-05-14T07:32:41;8.95;;;8.15;;
23868;SDS011;12115;47.128;15.422;2023-05-14T07:38:13;6.72;;;5.75;;
23868;SDS011;12115;47.128;15.422;2023-05-14T07:40:41;7.30;;;6.63;;
23868;SDS011;12115;47.128;15.422;2023-05-14T07:43:09;7.43;;;6.40;;
23868;SDS011;12115;47.128;15.422;2023-05-14T07:45:36;4.90;;;4.50;;
23868;SDS011;12115;47.128;15.422;2023-05-14T07:48:07;5.20;;;4.78;;
23868;SDS011;12115;47.128;15.422;2023-05-14T07:50:35;3.58;;;3.28;;
23868;SDS011;12115;47.128;15.422;2023-05-14T07:53:02;4.35;;;3.95;;
23868;SDS011;12115;47.128;15.422;2023-05-14T07:55:29;3.03;;;2.70;;
23868;SDS011;12115;47.128;15.422;2023-05-14T07:57:57;2.97;;;2.75;;
23868;SDS011;12115;47.128;15.422;2023-05-14T08:00:24;2.90;;;2.70;;
23868;SDS011;12115;47.128;15.422;2023-05-14T08:02:51;2.83;;;2.50;;
23868;SDS011;12115;47.128;15.422;2023-05-14T08:05:20;2.15;;;1.98;;
23868;SDS011;12115;47.128;15.422;2023-05-14T08:07:47;3.83;;;2.50;;
23868;SDS011;12115;47.128;15.422;2023-05-14T08:10:14;2.70;;;2.50;;
23868;SDS011;12115;47.128;15.422;2023-05-14T08:12:41;2.03;;;1.80;;
23868;SDS011;12115;47.128;15.422;2023-05-14T08:15:09;2.15;;;1.98;;
23868;SDS011;12115;47.128;15.422;2023-05-14T08:17:36;2.97;;;2.15;;
23868;SDS011;12115;47.128;15.422;2023-05-14T08:20:04;3.88;;;3.03;;
23868;SDS011;12115;47.128;15.422;2023-05-14T08:22:32;2.97;;;2.10;;
23868;SDS011;12115;47.128;15.422;2023-05-14T08:24:59;2.67;;;1.98;;
23868;SDS011;12115;47.128;15.422;2023-05-14T08:27:35;3.22;;;3.00;;
23868;SDS011;12115;47.128;15.422;2023-05-14T08:30:02;2.50;;;2.30;;
23868;SDS011;12115;47.128;15.422;2023-05-14T08:32:30;2.30;;;1.98;;
23868;SDS011;12115;47.128;15.422;2023-05-14T08:34:57;1.70;;;1.60;;
23868;SDS011;12115;47.128;15.422;2023-05-14T08:37:25;1.85;;;1.75;;
23868;SDS011;12115;47.128;15.422;2023-05-14T08:39:52;3.67;;;1.67;;
23868;SDS011;12115;47.128;15.422;2023-05-14T08:42:19;1.70;;;1.60;;
23868;SDS011;12115;47.128;15.422;2023-05-14T08:44:56;3.03;;;1.75;;
23868;SDS011;12115;47.128;15.422;2023-05-14T08:47:28;1.58;;;1.48;;
23868;SDS011;12115;47.128;15.422;2023-05-14T08:58:35;1.98;;;1.25;;
23868;SDS011;12115;47.128;15.422;2023-05-14T09:01:03;2.13;;;1.83;;
23868;SDS011;12115;47.128;15.422;2023-05-14T09:03:30;3.22;;;1.35;;
23868;SDS011;12115;47.128;15.422;2023-05-14T09:05:58;1.83;;;1.70;;
23868;SDS011;12115;47.128;15.422;2023-05-14T09:08:26;1.52;;;1.42;;
23868;SDS011;12115;47.128;15.422;2023-05-14T09:10:53;4.43;;;1.80;;
23868;SDS011;12115;47.128;15.422;2023-05-14T09:13:21;1.70;;;1.60;;
23868;SDS011;12115;47.128;15.422;2023-05-14T09:15:48;1.70;;;1.60;;
23868;SDS011;12115;47.128;15.422;2023-05-14T09:18:16;1.52;;;1.42;;
23868;SDS011;12115;47.128;15.422;2023-05-14T09:20:44;1.70;;;1.33;;
23868;SDS011;12115;47.128;15.422;2023-05-14T09:23:13;1.80;;;1.60;;
23868;SDS011;12115;47.128;15.422;2023-05-14T09:25:40;2.38;;;1.15;;
23868;SDS011;12115;47.128;15.422;2023-05-14T09:28:08;2.35;;;1.27;;
23868;SDS011;12115;47.128;15.422;2023-05-14T09:30:36;1.38;;;1.27;;
23868;SDS011;12115;47.128;15.422;2023-05-14T09:33:03;1.42;;;1.33;;
23868;SDS011;12115;47.128;15.422;2023-05-14T09:35:32;1.77;;;1.40;;
23868;SDS011;12115;47.128;15.422;2023-05-14T09:38:00;1.30;;;1.20;;
23868;SDS011;12115;47.128;15.422;2023-05-14T09:40:27;1.27;;;0.80;;
23868;SDS011;12115;47.128;15.422;2023-05-14T09:42:55;1.45;;;1.10;;
23868;SDS011;12115;47.128;15.422;2023-05-14T09:45:22;1.20;;;1.10;;
23868;SDS011;12115;47.128;15.422;2023-05-14T09:47:49;1.85;;;1.17;;
23868;SDS011;12115;47.128;15.422;2023-05-14T09:50:18;1.25;;;1.15;;
23868;SDS011;12115;47.128;15.422;2023-05-14T09:52:49;1.00;;;0.90;;
23868;SDS011;12115;47.128;15.422;2023-05-14T09:55:16;1.80;;;1.00;;
23868;SDS011;12115;47.128;15.422;2023-05-14T09:57:46;1.40;;;1.30;;
23868;SDS011;12115;47.128;15.422;2023-05-14T10:00:13;1.20;;;1.10;;
23868;SDS011;12115;47.128;15.422;2023-05-14T10:02:41;5.53;;;4.55;;
23868;SDS011;12115;47.128;15.422;2023-05-14T10:05:10;47.35;;;29.50;;
23868;SDS011;12115;47.128;15.422;2023-05-14T10:07:40;33.85;;;25.20;;
23868;SDS011;12115;47.128;15.422;2023-05-14T10:10:12;4.88;;;2.85;;
23868;SDS011;12115;47.128;15.422;2023-05-14T10:12:42;1.92;;;1.50;;
23868;SDS011;12115;47.128;15.422;2023-05-14T10:15:47;2.70;;;2.50;;
23868;SDS011;12115;47.128;15.422;2023-05-14T10:18:19;1.35;;;1.25;;
23868;SDS011;12115;47.128;15.422;2023-05-14T10:20:56;3.03;;;1.38;;
23868;SDS011;12115;47.128;15.422;2023-05-14T10:23:30;3.25;;;1.40;;
23868;SDS011;12115;47.128;15.422;2023-05-14T10:25:57;1.13;;;1.02;;
23868;SDS011;12115;47.128;15.422;2023-05-14T10:28:26;1.67;;;1.58;;
23868;SDS011;12115;47.128;15.422;2023-05-14T10:30:54;1.40;;;1.30;;
23868;SDS011;12115;47.128;15.422;2023-05-14T10:33:21;2.55;;;1.30;;
23868;SDS011;12115;47.128;15.422;2023-05-14T10:38:35;2.10;;;1.30;;
23868;SDS011;12115;47.128;15.422;2023-05-14T10:41:11;1.70;;;1.00;;
23868;SDS011;12115;47.128;15.422;2023-05-14T10:43:43;1.70;;;1.05;;
23868;SDS011;12115;47.128;15.422;2023-05-14T10:46:11;1.58;;;1.48;;
23868;SDS011;12115;47.128;15.422;2023-05-14T10:48:57;2.05;;;1.70;;
23868;SDS011;12115;47.128;15.422;2023-05-14T10:51:24;1.92;;;1.38;;
23868;SDS011;12115;47.128;15.422;2023-05-14T10:53:52;3.08;;;2.17;;
23868;SDS011;12115;47.128;15.422;2023-05-14T10:56:19;5.50;;;1.77;;
23868;SDS011;12115;47.128;15.422;2023-05-14T10:58:47;2.08;;;1.30;;
23868;SDS011;12115;47.128;15.422;2023-05-14T11:01:16;1.77;;;1.55;;
23868;SDS011;12115;47.128;15.422;2023-05-14T11:03:44;1.02;;;1.02;;
23868;SDS011;12115;47.128;15.422;2023-05-14T11:06:13;2.45;;;0.90;;
23868;SDS011;12115;47.128;15.422;2023-05-14T11:08:41;0.98;;;0.90;;
23868;SDS011;12115;47.128;15.422;2023-05-14T11:11:10;0.80;;;0.80;;
23868;SDS011;12115;47.128;15.422;2023-05-14T11:13:37;0.77;;;0.77;;
23868;SDS011;12115;47.128;15.422;2023-05-14T11:16:07;1.17;;;1.00;;
23868;SDS011;12115;47.128;15.422;2023-05-14T11:18:52;0.70;;;0.70;;
23868;SDS011;12115;47.128;15.422;2023-05-14T11:21:28;1.10;;;1.00;;
23868;SDS011;12115;47.128;15.422;2023-05-14T11:23:55;0.77;;;0.77;;
23868;SDS011;12115;47.128;15.422;2023-05-14T11:26:23;1.85;;;1.10;;
23868;SDS011;12115;47.128;15.422;2023-05-14T11:28:50;0.80;;;0.80;;
23868;SDS011;12115;47.128;15.422;2023-05-14T11:31:18;0.90;;;0.90;;
23868;SDS011;12115;47.128;15.422;2023-05-14T11:33:46;1.30;;;1.20;;
23868;SDS011;12115;47.128;15.422;2023-05-14T11:36:13;1.42;;;0.82;;
23868;SDS011;12115;47.128;15.422;2023-05-14T11:38:47;0.80;;;0.80;;
23868;SDS011;12115;47.128;15.422;2023-05-14T11:41:16;0.73;;;0.70;;
23868;SDS011;12115;47.128;15.422;2023-05-14T11:43:47;1.30;;;1.10;;
23868;SDS011;12115;47.128;15.422;2023-05-14T11:46:15;0.95;;;0.85;;
23868;SDS011;12115;47.128;15.422;2023-05-14T11:48:44;1.65;;;1.00;;
23868;SDS011;12115;47.128;15.422;2023-05-14T11:51:11;2.13;;;0.93;;
23868;SDS011;12115;47.128;15.422;2023-05-14T11:53:38;2.22;;;0.90;;
23868;SDS011;12115;47.128;15.422;2023-05-14T11:56:06;1.15;;;0.90;;
23868;SDS011;12115;47.128;15.422;2023-05-14T11:58:35;0.80;;;0.80;;
23868;SDS011;12115;47.128;15.422;2023-05-14T12:01:02;2.40;;;0.65;;
23868;SDS011;12115;47.128;15.422;2023-05-14T12:03:30;0.55;;;0.55;;
23868;SDS011;12115;47.128;15.422;2023-05-14T12:05:58;0.80;;;0.80;;
23868;SDS011;12115;47.128;15.422;2023-05-14T12:08:27;0.70;;;0.70;;
23868;SDS011;12115;47.128;15.422;2023-05-14T12:10:56;0.65;;;0.65;;
23868;SDS011;12115;47.128;15.422;2023-05-14T12:13:25;0.75;;;0.75;;
23868;SDS011;12115;47.128;15.422;2023-05-14T12:15:57;1.35;;;0.80;;
23868;SDS011;12115;47.128;15.422;2023-05-14T12:18:28;0.73;;;0.73;;
23868;SDS011;12115;47.128;15.422;2023-05-14T12:21:03;0.57;;;0.57;;
23868;SDS011;12115;47.128;15.422;2023-05-14T12:23:33;3.35;;;1.30;;
23868;SDS011;12115;47.128;15.422;2023-05-14T12:26:01;0.98;;;0.98;;
23868;SDS011;12115;47.128;15.422;2023-05-14T12:28:34;2.40;;;1.60;;
23868;SDS011;12115;47.128;15.422;2023-05-14T12:31:04;0.80;;;0.80;;
23868;SDS011;12115;47.128;15.422;2023-05-14T12:33:31;1.48;;;0.80;;
23868;SDS011;12115;47.128;15.422;2023-05-14T12:35:59;0.85;;;0.70;;
23868;SDS011;12115;47.128;15.422;2023-05-14T12:38:46;1.98;;;0.70;;
23868;SDS011;12115;47.128;15.422;2023-05-14T12:41:14;0.60;;;0.60;;
23868;SDS011;12115;47.128;15.422;2023-05-14T12:43:42;0.60;;;0.60;;
23868;SDS011;12115;47.128;15.422;2023-05-14T12:46:09;1.02;;;0.47;;
23868;SDS011;12115;47.128;15.422;2023-05-14T12:48:36;1.30;;;0.80;;
23868;SDS011;12115;47.128;15.422;2023-05-14T12:51:04;0.43;;;0.43;;
23868;SDS011;12115;47.128;15.422;2023-05-14T12:53:32;0.40;;;0.30;;
23868;SDS011;12115;47.128;15.422;2023-05-14T12:56:00;0.40;;;0.32;;
23868;SDS011;12115;47.128;15.422;2023-05-14T12:58:28;1.08;;;0.40;;
23868;SDS011;12115;47.128;15.422;2023-05-14T13:00:55;0.60;;;0.60;;
23868;SDS011;12115;47.128;15.422;2023-05-14T13:03:23;0.40;;;0.40;;
23868;SDS011;12115;47.128;15.422;2023-05-14T13:05:51;0.50;;;0.50;;
23868;SDS011;12115;47.128;15.422;2023-05-14T13:08:22;0.90;;;0.60;;
23868;SDS011;12115;47.128;15.422;2023-05-14T13:10:55;1.05;;;0.30;;
23868;SDS011;12115;47.128;15.422;2023-05-14T13:13:22;0.43;;;0.35;;
23868;SDS011;12115;47.128;15.422;2023-05-14T13:15:49;1.35;;;0.43;;
23868;SDS011;12115;47.128;15.422;2023-05-14T13:18:18;0.30;;;0.30;;
23868;SDS011;12115;47.128;15.422;2023-05-14T13:20:45;0.38;;;0.30;;
23868;SDS011;12115;47.128;15.422;2023-05-14T13:23:13;0.50;;;0.40;;
23868;SDS011;12115;47.128;15.422;2023-05-14T13:25:41;0.30;;;0.30;;
23868;SDS011;12115;47.128;15.422;2023-05-14T13:28:08;0.30;;;0.30;;
23868;SDS011;12115;47.128;15.422;2023-05-14T13:30:35;0.57;;;0.40;;
23868;SDS011;12115;47.128;15.422;2023-05-14T13:33:04;0.40;;;0.40;;
23868;SDS011;12115;47.128;15.422;2023-05-14T13:35:31;0.98;;;0.50;;
23868;SDS011;12115;47.128;15.422;2023-05-14T13:38:00;1.75;;;0.40;;
23868;SDS011;12115;47.128;15.422;2023-05-14T13:40:27;0.20;;;0.20;;
23868;SDS011;12115;47.128;15.422;2023-05-14T13:42:54;0.75;;;0.50;;
23868;SDS011;12115;47.128;15.422;2023-05-14T13:45:22;0.75;;;0.40;;
23868;SDS011;12115;47.128;15.422;2023-05-14T13:47:49;0.30;;;0.30;;
23868;SDS011;12115;47.128;15.422;2023-05-14T13:50:18;0.30;;;0.30;;
23868;SDS011;12115;47.128;15.422;2023-05-14T13:52:47;1.15;;;0.50;;
23868;SDS011;12115;47.128;15.422;2023-05-14T13:55:14;1.08;;;0.40;;
23868;SDS011;12115;47.128;15.422;2023-05-14T13:57:43;0.85;;;0.20;;
23868;SDS011;12115;47.128;15.422;2023-05-14T14:00:10;0.40;;;0.30;;
23868;SDS011;12115;47.128;15.422;2023-05-14T14:02:39;0.77;;;0.30;;
23868;SDS011;12115;47.128;15.422;2023-05-14T14:05:06;0.30;;;0.30;;
23868;SDS011;12115;47.128;15.422;2023-05-14T14:07:34;0.73;;;0.38;;
23868;SDS011;12115;47.128;15.422;2023-05-14T14:10:01;0.60;;;0.30;;
23868;SDS011;12115;47.128;15.422;2023-05-14T14:12:30;0.30;;;0.30;;
23868;SDS011;12115;47.128;15.422;2023-05-14T14:14:57;0.50;;;0.50;;
23868;SDS011;12115;47.128;15.422;2023-05-14T14:17:25;0.40;;;0.40;;
23868;SDS011;12115;47.128;15.422;2023-05-14T14:19:52;0.63;;;0.40;;
23868;SDS011;12115;47.128;15.422;2023-05-14T14:22:19;0.38;;;0.32;;
23868;SDS011;12115;47.128;15.422;2023-05-14T14:24:47;0.40;;;0.30;;
23868;SDS011;12115;47.128;15.422;2023-05-14T14:27:14;0.70;;;0.40;;
23868;SDS011;12115;47.128;15.422;2023-05-14T14:29:41;0.73;;;0.40;;
23868;SDS011;12115;47.128;15.422;2023-05-14T14:32:09;0.32;;;0.30;;
23868;SDS011;12115;47.128;15.422;2023-05-14T14:34:36;2.95;;;2.22;;
23868;SDS011;12115;47.128;15.422;2023-05-14T14:37:04;1.67;;;1.10;;
23868;SDS011;12115;47.128;15.422;2023-05-14T14:39:32;1.55;;;1.02;;
23868;SDS011;12115;47.128;15.422;2023-05-14T14:41:59;1.55;;;1.10;;
23868;SDS011;12115;47.128;15.422;2023-05-14T14:44:27;0.50;;;0.50;;
23868;SDS011;12115;47.128;15.422;2023-05-14T14:46:54;0.65;;;0.60;;
23868;SDS011;12115;47.128;15.422;2023-05-14T14:49:22;0.85;;;0.47;;
23868;SDS011;12115;47.128;15.422;2023-05-14T14:51:50;1.15;;;0.90;;
23868;SDS011;12115;47.128;15.422;2023-05-14T14:54:17;0.98;;;0.73;;
23868;SDS011;12115;47.128;15.422;2023-05-14T14:56:45;1.00;;;0.82;;
23868;SDS011;12115;47.128;15.422;2023-05-14T14:59:15;1.13;;;0.98;;
23868;SDS011;12115;47.128;15.422;2023-05-14T15:01:42;2.35;;;1.70;;
23868;SDS011;12115;47.128;15.422;2023-05-14T15:04:11;2.53;;;1.50;;